Time;durP1;ratioP1;P1;durP2;ratioP2;P2;SDS_P1;SDS_P2;PMS_P1;PMS_P2;Temp;Humidity;BMP_temperature;BMP_pressure;BME280_temperature;BME280_humidity;BME280_pressure;Samples;Min_cycle;Max_cycle;Signal;HPM_P1;HPM_P2
2023/12/25 00:01:58;;;;;;;3.28;2.97;;;;;;;11.03;100.00;100538.50;5072035;28;20052;-87
2023/12/25 00:04:24;;;;;;;3.42;2.90;;;;;;;11.02;100.00;100523.50;5070921;28;20042;-84
2023/12/25 00:06:49;;;;;;;5.38;3.00;;;;;;;11.01;100.00;100507.66;5078990;28;20111;-84
2023/12/25 00:09:18;;;;;;;6.13;3.08;;;;;;;11.04;100.00;100534.06;5061797;28;20037;-84
2023/12/25 00:11:43;;;;;;;5.45;3.00;;;;;;;11.00;100.00;100520.03;5071587;28;20082;-85
2023/12/25 00:14:09;;;;;;;5.35;3.00;;;;;;;11.08;100.00;100525.13;5071431;28;20040;-86
2023/12/25 00:16:34;;;;;;;4.00;2.88;;;;;;;11.02;100.00;100542.03;5053772;28;20041;-91
2023/12/25 00:19:00;;;;;;;3.22;2.92;;;;;;;11.15;100.00;100530.19;5055119;28;20036;-85
2023/12/25 00:21:26;;;;;;;4.00;2.50;;;;;;;11.09;100.00;100508.31;5061630;28;20403;-88
2023/12/25 00:23:53;;;;;;;4.10;3.40;;;;;;;11.00;100.00;100513.84;5079252;28;20479;-88
2023/12/25 00:26:18;;;;;;;3.70;3.30;;;;;;;10.99;100.00;100507.69;5058395;28;20052;-87
2023/12/25 00:28:44;;;;;;;5.60;3.55;;;;;;;10.96;100.00;100515.75;5060463;28;20037;-88
2023/12/25 00:31:10;;;;;;;4.63;3.88;;;;;;;10.90;100.00;100502.66;5033148;28;20087;-89
2023/12/25 00:33:35;;;;;;;8.93;3.90;;;;;;;10.84;100.00;100500.19;5070840;28;20040;-90
2023/12/25 00:36:01;;;;;;;3.20;2.90;;;;;;;10.94;100.00;100514.91;5058282;28;20136;-88
2023/12/25 00:38:26;;;;;;;4.45;3.72;;;;;;;10.90;100.00;100505.31;5075373;28;20571;-88
2023/12/25 00:40:52;;;;;;;4.30;3.60;;;;;;;10.94;100.00;100507.81;5059652;28;20035;-87
2023/12/25 00:43:18;;;;;;;5.15;4.50;;;;;;;10.86;100.00;100495.72;5076134;28;20056;-86
2023/12/25 00:45:43;;;;;;;5.30;4.32;;;;;;;11.00;100.00;100500.63;5076980;28;20033;-87
2023/12/25 00:48:09;;;;;;;5.85;4.28;;;;;;;10.92;100.00;100508.78;5073439;28;20036;-87
2023/12/25 00:50:34;;;;;;;6.18;4.50;;;;;;;10.94;100.00;100529.03;5075649;28;20067;-87
2023/12/25 00:53:00;;;;;;;6.05;4.88;;;;;;;10.98;100.00;100527.16;5057835;28;20477;-88
2023/12/25 00:55:26;;;;;;;6.90;4.60;;;;;;;11.00;100.00;100535.06;5058255;28;20507;-87
2023/12/25 00:57:51;;;;;;;4.70;3.28;;;;;;;11.12;100.00;100545.31;5057062;28;20036;-84
2023/12/25 01:00:18;;;;;;;5.07;4.40;;;;;;;11.00;100.00;100521.81;5065258;28;20087;-88
2023/12/25 01:02:43;;;;;;;5.63;4.47;;;;;;;11.04;100.00;100523.47;5073564;28;20039;-86
2023/12/25 01:05:09;;;;;;;4.53;3.78;;;;;;;11.00;100.00;100527.09;5053588;28;20037;-88
2023/12/25 01:07:35;;;;;;;5.13;4.05;;;;;;;10.98;100.00;100545.72;5057447;28;20045;-85
2023/12/25 01:10:01;;;;;;;5.50;3.58;;;;;;;11.20;100.00;100538.00;5056648;28;20064;-87
2023/12/25 01:12:27;;;;;;;5.53;3.88;;;;;;;11.06;100.00;100521.66;5057398;28;20040;-85
2023/12/25 01:14:53;;;;;;;5.13;3.47;;;;;;;11.09;100.00;100529.50;5056522;28;20082;-86
2023/12/25 01:17:18;;;;;;;6.72;4.20;;;;;;;11.00;100.00;100527.09;5073456;28;20529;-85
2023/12/25 01:19:44;;;;;;;7.07;3.55;;;;;;;11.04;100.00;100539.38;5056625;28;20094;-85
2023/12/25 01:22:09;;;;;;;6.40;3.13;;;;;;;11.08;100.00;100538.38;5070842;28;20028;-86
2023/12/25 01:24:34;;;;;;;8.35;3.60;;;;;;;11.07;100.00;100537.47;5056649;28;20048;-86
2023/12/25 01:27:00;;;;;;;7.45;3.85;;;;;;;11.09;100.00;100546.25;5071127;28;20045;-86
2023/12/25 01:29:26;;;;;;;5.45;3.28;;;;;;;11.09;100.00;100550.69;5046867;28;20091;-88
2023/12/25 01:31:54;;;;;;;6.03;3.53;;;;;;;11.06;100.00;100556.97;5037269;28;20057;-87
2023/12/25 01:34:19;;;;;;;6.10;3.53;;;;;;;11.09;100.00;100545.41;5066025;28;20049;-86
2023/12/25 01:36:44;;;;;;;5.95;2.88;;;;;;;11.10;100.00;100553.31;5066824;28;20090;-85
2023/12/25 01:39:12;;;;;;;4.65;3.05;;;;;;;11.07;100.00;100545.44;5055227;28;20076;-86
2023/12/25 01:41:38;;;;;;;4.32;2.90;;;;;;;11.16;100.00;100565.53;5045426;28;20128;-86
2023/12/25 01:44:03;;;;;;;6.90;3.40;;;;;;;11.13;100.00;100550.56;5087649;28;20079;-92
2023/12/25 01:46:29;;;;;;;6.53;3.70;;;;;;;11.13;100.00;100550.56;5039982;28;20037;-86
2023/12/25 01:48:55;;;;;;;6.88;3.45;;;;;;;11.09;100.00;100556.00;5072635;28;20040;-86
2023/12/25 01:51:22;;;;;;;6.28;3.40;;;;;;;11.11;100.00;100551.53;5065779;28;20504;-87
2023/12/25 01:53:49;;;;;;;5.25;3.20;;;;;;;11.08;100.00;100533.94;5044484;28;20144;-91
2023/12/25 01:56:16;;;;;;;6.88;3.03;;;;;;;11.19;100.00;100553.03;5037700;28;20357;-86
2023/12/25 01:58:44;;;;;;;5.63;3.42;;;;;;;11.13;100.00;100555.88;5044869;28;20037;-86
2023/12/25 02:01:09;;;;;;;7.22;3.50;;;;;;;11.11;100.00;100552.41;5071004;28;20441;-80
2023/12/25 02:03:35;;;;;;;9.25;3.55;;;;;;;11.26;100.00;100560.81;5074863;28;20115;-83
2023/12/25 02:06:01;;;;;;;5.95;3.58;;;;;;;11.11;100.00;100565.66;5064259;28;20036;-87
2023/12/25 02:08:28;;;;;;;6.82;3.70;;;;;;;11.13;100.00;100560.31;5074577;28;20471;-87
2023/12/25 02:10:54;;;;;;;6.18;3.50;;;;;;;11.15;100.00;100574.38;5059796;28;20119;-86
2023/12/25 02:13:20;;;;;;;5.70;3.33;;;;;;;11.22;100.00;100567.13;5079676;28;20123;-88
2023/12/25 02:15:48;;;;;;;9.50;3.88;;;;;;;11.14;100.00;100562.91;5075186;28;20036;-85
2023/12/25 02:18:14;;;;;;;6.13;4.00;;;;;;;11.16;100.00;100555.78;5055842;28;20040;-85
2023/12/25 02:20:40;;;;;;;6.35;3.90;;;;;;;11.17;100.00;100576.06;5052384;28;20033;-80
2023/12/25 02:23:10;;;;;;;6.07;3.80;;;;;;;11.12;100.00;100569.16;5065076;28;20054;-85
2023/12/25 02:25:47;;;;;;;8.02;3.40;;;;;;;11.11;100.00;100570.09;5057552;28;20122;-81
2023/12/25 02:28:12;;;;;;;8.55;3.80;;;;;;;11.17;100.00;100576.06;5071308;28;20175;-81
2023/12/25 02:30:40;;;;;;;9.63;4.30;;;;;;;11.20;100.00;100572.44;5084410;28;20131;-82
2023/12/25 02:33:06;;;;;;;7.70;3.97;;;;;;;11.20;100.00;100591.00;5071307;28;20032;-80
2023/12/25 02:35:31;;;;;;;5.72;3.30;;;;;;;11.19;100.00;100599.88;5087540;28;20032;-76
2023/12/25 02:37:57;;;;;;;9.25;3.50;;;;;;;11.29;100.00;100595.19;5022137;28;20119;-86
2023/12/25 02:40:22;;;;;;;6.63;3.55;;;;;;;11.28;100.00;100593.47;5036555;28;20116;-81
2023/12/25 02:42:48;;;;;;;5.68;2.85;;;;;;;11.34;100.00;100606.53;5070418;28;20057;-85
2023/12/25 02:45:16;;;;;;;9.23;3.42;;;;;;;11.33;100.00;100599.50;5071339;28;20063;-82
2023/12/25 02:47:42;;;;;;;5.05;3.05;;;;;;;11.32;100.00;100592.44;5070122;28;20389;-80
2023/12/25 02:50:07;;;;;;;8.93;3.55;;;;;;;11.31;100.00;100599.53;5071029;28;20037;-84
2023/12/25 02:52:33;;;;;;;5.97;3.40;;;;;;;11.37;100.00;100585.22;5050991;28;20043;-79
2023/12/25 02:54:58;;;;;;;5.05;3.35;;;;;;;11.31;100.00;100594.22;5075374;28;20403;-84
2023/12/25 02:57:24;;;;;;;8.85;3.60;;;;;;;11.37;100.00;100593.16;5036119;28;20064;-80
2023/12/25 02:59:49;;;;;;;4.93;3.15;;;;;;;11.38;100.00;100605.53;5050543;28;20412;-84
2023/12/25 03:02:15;;;;;;;7.93;3.42;;;;;;;11.34;100.00;100606.53;5040506;28;20400;-81
2023/12/25 03:04:40;;;;;;;3.78;2.70;;;;;;;11.40;100.00;100596.63;5034213;28;20395;-82
2023/12/25 03:07:06;;;;;;;6.13;4.05;;;;;;;11.40;100.00;100583.38;5054475;28;20047;-81
2023/12/25 03:09:31;;;;;;;6.28;3.60;;;;;;;11.52;100.00;100587.44;5052900;28;20036;-80
2023/12/25 03:11:57;;;;;;;6.65;3.40;;;;;;;11.40;100.00;100591.31;5007033;28;20041;-81
2023/12/25 03:14:22;;;;;;;4.95;3.22;;;;;;;11.49;100.00;100581.34;5070697;28;20032;-85
2023/12/25 03:16:48;;;;;;;6.15;3.22;;;;;;;11.47;100.00;100584.03;5053797;28;20488;-83
2023/12/25 03:19:13;;;;;;;4.70;3.33;;;;;;;11.46;100.00;100598.22;5053781;28;20037;-83
2023/12/25 03:21:39;;;;;;;5.07;3.33;;;;;;;11.39;100.00;100560.41;5037151;28;20064;-82
2023/12/25 03:24:05;;;;;;;8.15;4.22;;;;;;;11.45;100.00;100579.69;5070825;28;20036;-82
2023/12/25 03:26:32;;;;;;;4.35;3.22;;;;;;;11.46;100.00;100578.78;5050460;28;20029;-82
2023/12/25 03:28:57;;;;;;;6.05;3.90;;;;;;;11.40;100.00;100599.28;5068044;28;20192;-83
2023/12/25 03:31:23;;;;;;;6.75;4.05;;;;;;;11.28;100.00;100585.50;5017647;28;20040;-83
2023/12/25 03:33:49;;;;;;;7.00;4.00;;;;;;;11.36;100.00;100592.31;5014475;28;20029;-82
2023/12/25 03:36:14;;;;;;;7.15;4.18;;;;;;;11.37;100.00;100609.09;5053342;28;20047;-82
2023/12/25 03:38:40;;;;;;;6.47;3.80;;;;;;;11.37;100.00;100607.31;5070485;28;20033;-83
2023/12/25 03:41:08;;;;;;;4.22;3.45;;;;;;;11.37;100.00;100606.44;5070261;28;20471;-82
2023/12/25 03:43:34;;;;;;;5.18;2.83;;;;;;;11.41;100.00;100600.13;5070316;28;20053;-82
2023/12/25 03:45:59;;;;;;;3.90;2.80;;;;;;;11.42;100.00;100604.50;5069949;28;20530;-81
2023/12/25 03:48:25;;;;;;;4.68;2.75;;;;;;;11.44;100.00;100610.66;5026460;28;20052;-82
2023/12/25 03:50:50;;;;;;;4.68;2.97;;;;;;;11.52;100.00;100618.38;5055320;28;20055;-82
2023/12/25 03:53:16;;;;;;;3.50;3.08;;;;;;;11.61;100.00;100616.31;5087303;28;20048;-81
2023/12/25 03:55:41;;;;;;;6.85;2.90;;;;;;;11.56;100.00;100617.38;5054054;28;20145;-82
2023/12/25 03:58:07;;;;;;;4.53;2.83;;;;;;;11.59;100.00;100615.50;5073033;28;20108;-84
2023/12/25 04:00:35;;;;;;;4.55;2.95;;;;;;;11.58;100.00;100615.56;5037638;28;20045;-82
2023/12/25 04:03:01;;;;;;;3.13;2.72;;;;;;;11.58;100.00;100626.16;5040708;28;20037;-82
2023/12/25 04:05:26;;;;;;;3.97;2.97;;;;;;;11.58;100.00;100621.72;5073681;28;20580;-81
2023/12/25 04:07:52;;;;;;;4.45;3.25;;;;;;;11.52;100.00;100602.47;5057066;28;20063;-81
2023/12/25 04:10:17;;;;;;;3.75;2.88;;;;;;;11.45;100.00;100612.41;5090314;28;20417;-82
2023/12/25 04:12:43;;;;;;;4.68;3.40;;;;;;;11.44;100.00;100626.56;5056940;28;20040;-82
2023/12/25 04:15:09;;;;;;;3.45;3.13;;;;;;;11.51;100.00;100614.84;5056949;28;20067;-82
2023/12/25 04:17:35;;;;;;;5.07;3.42;;;;;;;11.42;100.00;100620.41;5040763;28;20035;-82
2023/12/25 04:20:01;;;;;;;5.07;3.42;;;;;;;11.47;100.00;100612.34;5044427;28;20021;-85
2023/12/25 04:22:29;;;;;;;6.70;4.45;;;;;;;11.28;100.00;100601.41;5038044;28;20065;-86
2023/12/25 04:24:55;;;;;;;5.18;4.68;;;;;;;11.24;100.00;100603.25;5057870;28;20036;-87
2023/12/25 04:27:21;;;;;;;8.60;4.55;;;;;;;11.26;100.00;100617.34;5057844;28;20032;-89
2023/12/25 04:29:49;;;;;;;6.53;5.47;;;;;;;11.22;100.00;100612.16;5054589;28;20040;-85
2023/12/25 04:32:18;;;;;;;7.07;6.38;;;;;;;11.12;100.00;100604.47;5054052;28;20049;-87
2023/12/25 04:34:43;;;;;;;7.88;6.32;;;;;;;11.07;100.00;100587.84;5054061;28;20044;-83
2023/12/25 04:37:09;;;;;;;7.15;6.35;;;;;;;11.12;100.00;100606.25;5034225;28;20086;-86
2023/12/25 04:39:35;;;;;;;8.25;5.25;;;;;;;11.12;100.00;100591.22;5056975;28;20025;-87
2023/12/25 04:42:01;;;;;;;7.20;6.30;;;;;;;11.08;100.00;100608.13;5061396;28;20157;-87
2023/12/25 04:44:28;;;;;;;6.93;6.15;;;;;;;10.93;100.00;100590.03;5040360;28;20056;-85
2023/12/25 04:46:53;;;;;;;8.00;6.80;;;;;;;11.00;100.00;100607.47;5073228;28;20548;-86
2023/12/25 04:49:19;;;;;;;8.55;7.05;;;;;;;10.98;100.00;100599.56;5056515;28;20117;-83
2023/12/25 04:51:45;;;;;;;6.75;6.03;;;;;;;10.95;100.00;100583.75;5073796;28;20032;-85
2023/12/25 04:54:10;;;;;;;6.63;5.93;;;;;;;11.00;100.00;100580.97;5073457;28;20055;-85
2023/12/25 04:56:36;;;;;;;7.68;6.43;;;;;;;10.89;100.00;100575.09;5067421;28;20032;-85
2023/12/25 04:59:02;;;;;;;7.38;6.55;;;;;;;10.93;100.00;100604.13;5073325;28;20464;-87
2023/12/25 05:01:28;;;;;;;10.82;6.55;;;;;;;10.82;100.00;100594.72;5072781;28;20020;-82
2023/12/25 05:03:53;;;;;;;7.30;6.60;;;;;;;10.83;100.00;100592.03;5072485;28;20567;-85
2023/12/25 05:06:19;;;;;;;8.10;6.95;;;;;;;10.69;100.00;100568.56;5071146;28;20044;-83
2023/12/25 05:08:50;;;;;;;9.10;7.25;;;;;;;10.72;100.00;100573.78;5056290;28;20181;-83
2023/12/25 05:11:16;;;;;;;9.13;6.97;;;;;;;10.74;100.00;100571.09;5042671;28;20106;-83
2023/12/25 05:13:41;;;;;;;7.55;6.80;;;;;;;10.79;100.00;100585.09;5070879;28;20028;-82
2023/12/25 05:16:07;;;;;;;8.65;6.38;;;;;;;10.74;100.00;100579.03;5072153;28;20051;-80
2023/12/25 05:18:33;;;;;;;7.30;6.22;;;;;;;10.75;100.00;100578.13;5055983;28;20036;-81
2023/12/25 05:20:59;;;;;;;4.60;4.20;;;;;;;10.81;100.00;100588.56;5053988;28;20045;-80
2023/12/25 05:23:24;;;;;;;5.55;3.40;;;;;;;10.76;100.00;100579.88;5073734;28;20044;-81
2023/12/25 05:25:50;;;;;;;3.53;3.22;;;;;;;10.74;100.00;100571.97;5072118;28;20040;-82
2023/12/25 05:28:15;;;;;;;4.07;3.53;;;;;;;10.75;100.00;100586.06;5029979;28;20098;-82
2023/12/25 05:30:42;;;;;;;4.22;3.17;;;;;;;10.80;100.00;100584.16;5037377;28;20039;-81
2023/12/25 05:33:08;;;;;;;3.63;3.33;;;;;;;10.70;100.00;100582.66;5055420;28;20032;-82
2023/12/25 05:35:34;;;;;;;4.97;3.50;;;;;;;10.66;100.00;100584.53;5054246;28;20036;-82
2023/12/25 05:38:00;;;;;;;7.88;3.30;;;;;;;10.66;100.00;100581.91;5019093;28;20037;-82
2023/12/25 05:40:25;;;;;;;5.28;3.80;;;;;;;10.63;100.00;100578.44;5040872;28;20507;-82
2023/12/25 05:42:51;;;;;;;5.22;3.45;;;;;;;10.62;100.00;100588.16;5052926;28;20543;-83
2023/12/25 05:45:17;;;;;;;4.30;3.90;;;;;;;10.56;100.00;100572.47;5051405;28;20043;-83
2023/12/25 05:47:43;;;;;;;5.03;3.70;;;;;;;10.64;100.00;100596.09;5068751;28;20032;-81
2023/12/25 05:50:08;;;;;;;5.63;3.80;;;;;;;10.55;100.00;100566.28;5069101;28;20059;-80
2023/12/25 05:52:34;;;;;;;7.07;4.20;;;;;;;10.64;100.00;100577.56;5072880;28;20036;-81
2023/12/25 05:55:00;;;;;;;4.78;3.90;;;;;;;10.57;100.00;100579.47;5037995;28;20102;-81
2023/12/25 05:57:26;;;;;;;4.20;3.80;;;;;;;10.61;100.00;100589.09;5054954;28;20025;-80
2023/12/25 05:59:52;;;;;;;3.88;3.45;;;;;;;10.61;100.00;100596.16;5071849;28;20074;-83
2023/12/25 06:02:18;;;;;;;4.28;3.63;;;;;;;10.59;100.00;100577.66;5026788;28;20134;-83
2023/12/25 06:04:43;;;;;;;5.75;2.85;;;;;;;10.55;100.00;100591.88;5036576;28;20098;-81
2023/12/25 06:07:11;;;;;;;3.50;3.20;;;;;;;10.45;100.00;100575.34;5055070;28;20064;-81
2023/12/25 06:09:39;;;;;;;3.10;2.80;;;;;;;10.62;100.00;100584.66;5054427;28;20387;-82
2023/12/25 06:12:06;;;;;;;3.55;2.95;;;;;;;10.62;100.00;100587.31;5054792;28;20097;-80
2023/12/25 06:14:31;;;;;;;3.17;2.80;;;;;;;10.65;100.00;100590.72;5072544;28;20028;-82
2023/12/25 06:16:57;;;;;;;3.65;3.10;;;;;;;10.61;100.00;100596.16;5053864;28;20044;-80
2023/12/25 06:19:23;;;;;;;4.65;3.30;;;;;;;10.61;100.00;100596.16;5073191;28;20095;-82
2023/12/25 06:21:49;;;;;;;3.53;3.22;;;;;;;10.64;100.00;100585.50;5074805;28;20035;-82
2023/12/25 06:24:15;;;;;;;3.92;3.53;;;;;;;10.65;100.00;100589.88;5063278;28;20364;-81
2023/12/25 06:26:40;;;;;;;3.60;3.30;;;;;;;10.60;100.00;100578.53;5071440;28;20058;-81
2023/12/25 06:29:06;;;;;;;3.80;3.40;;;;;;;10.59;100.00;100579.44;5054665;28;20446;-81
2023/12/25 06:31:31;;;;;;;4.25;3.85;;;;;;;10.60;100.00;100586.47;5071134;28;20504;-84
2023/12/25 06:33:57;;;;;;;3.90;3.47;;;;;;;10.56;100.00;100569.81;5034951;28;20037;-83
2023/12/25 06:36:23;;;;;;;5.13;4.00;;;;;;;10.60;100.00;100583.81;5071184;28;20040;-85
2023/12/25 06:38:49;;;;;;;4.22;3.83;;;;;;;10.61;100.00;100580.25;5070759;28;20028;-81
2023/12/25 06:41:14;;;;;;;4.10;3.70;;;;;;;10.58;100.00;100622.72;5065222;28;20516;-84
2023/12/25 06:43:40;;;;;;;3.25;2.30;;;;;;;10.54;100.00;100630.75;5066737;28;20529;-81
2023/12/25 06:46:05;;;;;;;2.75;1.20;;;;;;;10.38;100.00;100629.38;5054171;28;20033;-83
2023/12/25 06:48:31;;;;;;;4.05;1.40;;;;;;;10.20;100.00;100640.38;5048475;28;20126;-79
2023/12/25 06:50:57;;;;;;;3.58;1.00;;;;;;;10.10;100.00;100629.13;5064168;28;20045;-82
2023/12/25 06:53:22;;;;;;;3.20;1.10;;;;;;;9.91;100.00;100636.59;5006614;28;20115;-81
2023/12/25 06:55:48;;;;;;;5.47;1.35;;;;;;;9.84;100.00;100635.00;5047834;28;20056;-79
2023/12/25 06:58:13;;;;;;;2.97;1.38;;;;;;;9.77;100.00;100651.94;5059779;28;20503;-78
2023/12/25 07:00:41;;;;;;;4.15;0.90;;;;;;;9.68;100.00;100648.56;5052781;28;20499;-82
2023/12/25 07:03:07;;;;;;;3.42;1.13;;;;;;;9.59;100.00;100624.94;5058099;28;20177;-83
2023/12/25 07:05:33;;;;;;;1.92;1.10;;;;;;;9.58;100.00;100635.59;5053251;28;20143;-85
2023/12/25 07:07:59;;;;;;;1.77;1.02;;;;;;;9.56;100.00;100643.53;5050943;28;20056;-84
2023/12/25 07:10:25;;;;;;;3.38;1.20;;;;;;;9.43;100.00;100632.34;5033828;28;20163;-83
2023/12/25 07:12:50;;;;;;;0.77;0.63;;;;;;;9.40;100.00;100628.91;5064791;28;20108;-85
2023/12/25 07:15:16;;;;;;;1.20;0.75;;;;;;;9.50;100.00;100656.03;5054067;28;20028;-84
2023/12/25 07:17:42;;;;;;;1.73;0.82;;;;;;;9.50;100.00;100650.75;5035323;28;20037;-82
2023/12/25 07:20:08;;;;;;;1.75;1.10;;;;;;;9.38;100.00;100644.78;5068929;28;20044;-82
2023/12/25 07:22:33;;;;;;;0.90;0.80;;;;;;;9.48;100.00;100656.91;5046198;28;20029;-83
2023/12/25 07:25:04;;;;;;;2.15;0.63;;;;;;;9.48;100.00;100659.56;5054192;28;20063;-84
2023/12/25 07:27:31;;;;;;;1.33;0.60;;;;;;;9.39;100.00;100643.00;5051700;28;20028;-83
2023/12/25 07:29:56;;;;;;;2.25;0.88;;;;;;;9.46;100.00;100666.63;5047225;28;20446;-83
2023/12/25 07:32:22;;;;;;;1.17;0.80;;;;;;;9.44;100.00;100665.78;5057591;28;20037;-84
2023/12/25 07:34:47;;;;;;;1.67;0.80;;;;;;;9.37;100.00;100665.94;5052815;28;20032;-84
2023/12/25 07:37:13;;;;;;;4.63;1.20;;;;;;;9.38;100.00;100676.50;5073217;28;20028;-82
2023/12/25 07:39:44;;;;;;;2.92;0.88;;;;;;;9.40;100.00;100674.69;5054885;28;20101;-83
2023/12/25 07:42:10;;;;;;;3.05;0.95;;;;;;;9.31;100.00;100666.09;5038811;28;20033;-81
2023/12/25 07:44:39;;;;;;;3.25;1.00;;;;;;;9.32;100.00;100663.41;5052295;28;20063;-82
2023/12/25 07:47:05;;;;;;;1.80;0.85;;;;;;;9.36;100.00;100678.28;5055264;28;20077;-81
2023/12/25 07:49:31;;;;;;;1.20;0.80;;;;;;;9.37;100.00;100680.06;5054853;28;20383;-82
2023/12/25 07:51:56;;;;;;;2.35;0.70;;;;;;;9.36;100.00;100675.66;5028625;28;20041;-81
2023/12/25 07:54:22;;;;;;;2.25;0.52;;;;;;;9.32;100.00;100679.28;5045503;28;20069;-81
2023/12/25 07:56:47;;;;;;;1.13;0.63;;;;;;;9.37;100.00;100685.34;5031261;28;20201;-82
2023/12/25 07:59:13;;;;;;;1.77;1.00;;;;;;;9.40;100.00;100705.56;5036804;28;20036;-82
2023/12/25 08:01:38;;;;;;;0.75;0.60;;;;;;;9.36;100.00;100703.84;5043117;28;20041;-82
2023/12/25 08:04:06;;;;;;;0.93;0.80;;;;;;;9.34;100.00;100706.53;5040640;28;20107;-85
2023/12/25 08:06:32;;;;;;;0.50;0.50;;;;;;;9.35;100.00;100699.50;5057571;28;20040;-85
2023/12/25 08:08:58;;;;;;;2.17;0.60;;;;;;;9.26;100.00;100688.16;5037202;28;20037;-83
2023/12/25 08:11:23;;;;;;;1.40;0.73;;;;;;;9.33;100.00;100704.78;5040453;28;20064;-84
2023/12/25 08:13:49;;;;;;;2.83;0.85;;;;;;;9.25;100.00;100698.78;5052219;28;20048;-83
2023/12/25 08:16:14;;;;;;;2.17;0.93;;;;;;;9.31;100.00;100708.38;5042103;28;20057;-80
2023/12/25 08:18:40;;;;;;;2.28;0.88;;;;;;;9.26;100.00;100696.09;5052222;28;20060;-85
2023/12/25 08:21:11;;;;;;;2.42;1.10;;;;;;;9.25;100.00;100712.88;5052791;28;20048;-84
2023/12/25 08:23:43;;;;;;;1.77;1.10;;;;;;;9.17;100.00;100692.75;5071662;28;20127;-85
2023/12/25 08:26:09;;;;;;;2.70;1.30;;;;;;;9.24;100.00;100710.22;5066224;28;20036;-85
2023/12/25 08:28:40;;;;;;;3.17;1.67;;;;;;;9.21;100.00;100702.38;5071072;28;20040;-85
2023/12/25 08:31:06;;;;;;;5.25;1.70;;;;;;;9.25;100.00;100722.56;5060670;28;20036;-85
2023/12/25 08:33:34;;;;;;;3.10;1.08;;;;;;;9.26;100.00;100722.53;5069220;28;20501;-84
2023/12/25 08:36:09;;;;;;;2.95;1.10;;;;;;;9.25;100.00;100704.06;5057139;28;20016;-85
2023/12/25 08:38:35;;;;;;;1.95;1.02;;;;;;;9.18;100.00;100698.03;5056524;28;20036;-83
2023/12/25 08:41:02;;;;;;;3.47;1.10;;;;;;;9.19;100.00;100706.81;5073008;28;20119;-85
2023/12/25 08:43:28;;;;;;;2.60;1.15;;;;;;;9.18;100.00;100703.31;5072507;28;20055;-85
2023/12/25 08:45:54;;;;;;;3.28;1.50;;;;;;;9.24;100.00;100723.44;5069845;28;20379;-83
2023/12/25 08:48:19;;;;;;;1.77;1.17;;;;;;;9.15;100.00;100719.22;5065559;28;20472;-84
2023/12/25 08:50:45;;;;;;;3.05;1.30;;;;;;;9.22;100.00;100738.44;5053452;28;20021;-84
2023/12/25 08:53:10;;;;;;;3.13;1.02;;;;;;;9.21;100.00;100732.31;5055612;28;20157;-83
2023/12/25 08:55:36;;;;;;;2.17;1.10;;;;;;;9.24;100.00;100729.59;5055709;28;20135;-86
2023/12/25 08:58:03;;;;;;;1.85;1.08;;;;;;;9.27;100.00;100744.53;5072969;28;20040;-83
2023/12/25 09:00:29;;;;;;;2.85;1.10;;;;;;;9.20;100.00;100714.72;5072632;28;20020;-82
2023/12/25 09:02:55;;;;;;;3.15;1.20;;;;;;;9.18;100.00;100713.00;5055813;28;20033;-83
2023/12/25 09:05:21;;;;;;;3.85;1.30;;;;;;;9.22;100.00;100726.13;5067542;28;20035;-83
2023/12/25 09:07:46;;;;;;;5.20;1.42;;;;;;;9.31;100.00;100734.78;5021698;28;20036;-83
2023/12/25 09:10:12;;;;;;;5.25;1.33;;;;;;;9.25;100.00;100741.06;5052267;28;20135;-84
2023/12/25 09:12:38;;;;;;;4.90;1.02;;;;;;;9.23;100.00;100732.28;5044247;28;20119;-84
2023/12/25 09:15:05;;;;;;;3.33;1.20;;;;;;;9.32;100.00;100768.22;5046237;28;20452;-82
2023/12/25 09:17:31;;;;;;;1.52;1.08;;;;;;;9.24;100.00;100750.75;5056229;28;20052;-83
2023/12/25 09:19:56;;;;;;;3.70;1.20;;;;;;;9.26;100.00;100758.66;5066141;28;20476;-84
2023/12/25 09:22:24;;;;;;;1.55;1.10;;;;;;;9.25;100.00;100756.91;5060842;28;20044;-82
2023/12/25 09:24:53;;;;;;;2.00;0.90;;;;;;;9.28;100.00;100775.34;5056389;28;20037;-84
2023/12/25 09:27:18;;;;;;;0.75;0.63;;;;;;;9.26;100.00;100771.88;5072503;28;20024;-82
2023/12/25 09:29:44;;;;;;;0.65;0.55;;;;;;;9.28;100.00;100778.00;5059630;28;20143;-83
2023/12/25 09:32:09;;;;;;;1.65;0.90;;;;;;;9.23;100.00;100778.06;5048273;28;20085;-89
2023/12/25 09:34:35;;;;;;;0.93;0.75;;;;;;;9.29;100.00;100781.50;5067528;28;20032;-91
2023/12/25 09:37:00;;;;;;;1.52;0.75;;;;;;;9.28;100.00;100782.41;5056898;28;20506;-92
2023/12/25 09:39:26;;;;;;;2.70;1.00;;;;;;;9.33;100.00;100788.50;5035017;28;20806;-91
2023/12/25 09:41:52;;;;;;;1.45;1.20;;;;;;;9.33;100.00;100786.72;5036751;28;20120;-90
2023/12/25 09:44:18;;;;;;;0.60;0.60;;;;;;;9.37;100.00;100791.06;5050480;28;20131;-92
2023/12/25 09:46:44;;;;;;;1.90;0.80;;;;;;;9.32;100.00;100769.13;5045491;28;20365;-91
2023/12/25 09:49:10;;;;;;;1.30;0.68;;;;;;;9.34;100.00;100769.09;5056641;28;20035;-89
2023/12/25 09:51:36;;;;;;;1.17;0.60;;;;;;;9.36;100.00;100776.06;5055419;28;20032;-92
2023/12/25 09:54:02;;;;;;;2.42;0.95;;;;;;;9.36;100.00;100773.44;5072948;28;20111;-88
2023/12/25 09:56:33;;;;;;;1.70;0.82;;;;;;;9.42;100.00;100786.56;5056150;28;20041;-90
2023/12/25 09:58:59;;;;;;;1.13;0.73;;;;;;;9.39;100.00;100778.66;5041687;28;20042;-91
2023/12/25 10:01:25;;;;;;;2.45;1.02;;;;;;;9.37;100.00;100779.59;5064704;28;20119;-90
2023/12/25 10:03:52;;;;;;;1.60;0.90;;;;;;;9.40;100.00;100779.56;5030058;28;20418;-92
2023/12/25 10:06:21;;;;;;;3.08;1.20;;;;;;;9.38;100.00;100781.34;5042000;28;20120;-92
2023/12/25 10:08:47;;;;;;;1.15;0.80;;;;;;;9.35;100.00;100784.06;5052429;28;20602;-91
2023/12/25 10:11:15;;;;;;;3.67;1.00;;;;;;;9.35;100.00;100792.84;5040803;28;20041;-91
2023/12/25 10:13:41;;;;;;;3.25;1.00;;;;;;;9.36;100.00;100793.72;5050055;28;20024;-91
2023/12/25 10:16:07;;;;;;;1.13;0.70;;;;;;;9.34;100.00;100804.31;5047804;28;20065;-92
2023/12/25 10:18:33;;;;;;;2.78;1.30;;;;;;;9.32;100.00;100808.75;5057623;28;20119;-92
2023/12/25 10:21:01;;;;;;;2.92;1.15;;;;;;;9.31;100.00;100796.44;5039725;28;20036;-92
2023/12/25 10:23:31;;;;;;;3.17;1.42;;;;;;;9.29;100.00;100792.94;5058017;28;20055;-92
2023/12/25 10:25:58;;;;;;;2.83;1.25;;;;;;;9.32;100.00;100808.75;5055693;28;20036;-93
2023/12/25 10:28:29;;;;;;;2.40;0.90;;;;;;;9.25;100.00;100799.19;5071396;28;20068;-92
2023/12/25 10:31:05;;;;;;;3.90;1.05;;;;;;;9.21;100.00;100795.72;5067009;28;20032;-86
2023/12/25 10:33:31;;;;;;;8.05;1.15;;;;;;;9.28;100.00;100809.72;5065904;28;20489;-90
2023/12/25 10:36:02;;;;;;;4.13;1.30;;;;;;;9.21;100.00;100808.94;5060820;28;20035;-92
2023/12/25 10:38:32;;;;;;;1.83;1.10;;;;;;;9.17;100.00;100806.34;5075459;28;20049;-94
2023/12/25 10:40:57;;;;;;;1.90;0.80;;;;;;;9.21;100.00;100811.56;5057909;28;20047;-92
2023/12/25 10:43:25;;;;;;;3.17;1.23;;;;;;;9.23;100.00;100812.41;5074944;28;20048;-93
2023/12/25 10:45:54;;;;;;;6.75;1.40;;;;;;;9.15;100.00;100798.47;5055402;28;20051;-92
2023/12/25 10:48:23;;;;;;;5.45;1.40;;;;;;;9.14;100.00;100803.78;5068179;28;20036;-91
2023/12/25 10:50:51;;;;;;;5.32;1.02;;;;;;;9.14;100.00;100809.06;5040523;28;20040;-91
2023/12/25 10:53:17;;;;;;;3.95;1.10;;;;;;;9.11;100.00;100795.91;5021812;28;20036;-92
2023/12/25 10:55:44;;;;;;;3.28;1.40;;;;;;;9.14;100.00;100801.13;5054535;28;20083;-88
2023/12/25 10:58:16;;;;;;;3.53;1.23;;;;;;;9.06;100.00;100803.91;5072623;28;20101;-94
2023/12/25 11:00:54;;;;;;;3.13;1.30;;;;;;;9.03;100.00;100788.97;5060832;28;20028;-91
2023/12/25 11:03:20;;;;;;;3.90;0.88;;;;;;;9.02;100.00;100787.22;5053751;28;20051;-92
2023/12/25 11:05:46;;;;;;;4.88;1.25;;;;;;;9.06;100.00;100797.75;5037499;28;20480;-87
2023/12/25 11:08:19;;;;;;;5.75;1.52;;;;;;;9.07;100.00;100804.75;5072449;28;20040;-92
2023/12/25 11:10:45;;;;;;;4.28;1.40;;;;;;;9.03;100.00;100809.25;5071197;28;20028;-93
2023/12/25 11:13:12;;;;;;;5.43;1.40;;;;;;;9.00;100.00;100810.16;5070936;28;20039;-92
2023/12/25 11:15:39;;;;;;;6.40;1.33;;;;;;;8.98;100.00;100806.66;5038184;28;20037;-90